Aviation Digital Data Service (ADDS)

Output produced by METARs form (0916 UTC 16 December 2017)
found at http://aviationweather.gov/adds/metars/
 
KFDY 160531Z 1606/1706 22012G20KT P6SM OVC040 
     FM161300 23012KT P6SM BKN050 
     FM161800 23009KT P6SM SCT200 
     FM170400 16005KT 6SM BR SCT200